Time;durP1;ratioP1;P1;durP2;ratioP2;P2;SDS_P1;SDS_P2;PMS_P1;PMS_P2;Temp;Humidity;BMP_temperature;BMP_pressure;BME280_temperature;BME280_humidity;BME280_pressure;Samples;Min_cycle;Max_cycle;Signal;HPM_P1;HPM_P2
2021/12/08 00:02:19;;;;;;;16.95;6.03;;;;;;;3.81;100.00;99046.00;5247898;28;20614;-65
2021/12/08 00:04:51;;;;;;;15.68;5.20;;;;;;;3.84;100.00;99036.03;5241496;28;20370;-65
2021/12/08 00:07:22;;;;;;;11.18;4.90;;;;;;;3.89;100.00;99027.75;5240661;28;20031;-65
2021/12/08 00:10:04;;;;;;;11.73;5.25;;;;;;;3.90;100.00;99025.00;5243886;28;20049;-66
2021/12/08 00:15:25;;;;;;;12.13;5.32;;;;;;;3.95;100.00;99014.13;5246109;28;20044;-65
2021/12/08 00:17:57;;;;;;;11.43;4.88;;;;;;;4.01;100.00;99013.63;5247557;28;20025;-65
2021/12/08 00:20:31;;;;;;;10.90;4.93;;;;;;;4.01;100.00;99010.13;5245009;28;20024;-65
2021/12/08 00:23:03;;;;;;;;;;;;;;;4.04;100.00;99021.28;5250994;28;20475;-65
2021/12/08 00:25:36;;;;;;;8.23;4.30;;;;;;;4.09;100.00;99013.84;5252036;28;19916;-65
2021/12/08 00:28:09;;;;;;;9.70;4.13;;;;;;;4.14;100.00;99024.03;5248620;28;20530;-65
2021/12/08 00:30:53;;;;;;;11.82;4.85;;;;;;;4.17;100.00;99037.00;5242699;28;20078;-65
2021/12/08 00:33:27;;;;;;;13.57;4.63;;;;;;;4.18;100.00;99051.88;5247023;28;20029;-65
2021/12/08 00:36:02;;;;;;;13.20;4.75;;;;;;;4.22;100.00;99031.34;5247025;28;20288;-65
2021/12/08 00:38:33;;;;;;;10.43;4.75;;;;;;;4.22;100.00;99028.69;5246652;28;20087;-64
2021/12/08 00:41:05;;;;;;;10.75;4.50;;;;;;;4.24;100.00;99019.72;5250048;28;20139;-65
2021/12/08 00:43:36;;;;;;;13.77;4.70;;;;;;;4.27;100.00;99014.16;5251422;28;20045;-65
2021/12/08 00:46:08;;;;;;;11.30;4.30;;;;;;;4.29;100.00;99014.06;5250777;28;20029;-65
2021/12/08 00:48:41;;;;;;;8.82;3.85;;;;;;;4.31;100.00;99020.06;5250460;28;20460;-65
2021/12/08 00:51:12;;;;;;;8.45;4.05;;;;;;;4.34;100.00;99027.75;5248856;28;20070;-65
2021/12/08 00:53:45;;;;;;;7.15;3.97;;;;;;;4.33;100.00;99036.59;5248454;28;20021;-65
2021/12/08 00:56:17;;;;;;;12.60;4.07;;;;;;;4.32;100.00;99024.38;5248186;28;20040;-65
2021/12/08 00:58:48;;;;;;;8.88;4.15;;;;;;;4.36;100.00;99041.66;5248103;28;20025;-65
2021/12/08 01:01:20;;;;;;;8.85;3.95;;;;;;;4.36;100.00;99052.22;5250364;28;20590;-65
2021/12/08 01:03:52;;;;;;;8.02;3.53;;;;;;;4.42;100.00;99051.72;5251996;28;20411;-64
2021/12/08 01:06:23;;;;;;;9.95;3.72;;;;;;;4.42;100.00;99049.09;5251413;28;20048;-65
2021/12/08 01:08:55;;;;;;;10.32;3.85;;;;;;;4.43;100.00;99071.03;5251403;28;20029;-65
2021/12/08 01:11:26;;;;;;;8.23;3.63;;;;;;;4.45;100.00;99066.47;5248985;28;20049;-65
2021/12/08 01:13:58;;;;;;;7.85;3.35;;;;;;;4.46;100.00;99057.59;5253491;28;20395;-65
2021/12/08 01:16:29;;;;;;;10.57;4.35;;;;;;;4.48;100.00;99061.78;5251247;28;20036;-65
2021/12/08 01:19:00;;;;;;;9.15;4.10;;;;;;;4.49;100.00;99075.84;5253311;28;20091;-64
2021/12/08 01:21:32;;;;;;;8.43;3.80;;;;;;;4.53;100.00;99061.44;5253740;28;20038;-65
2021/12/08 01:24:03;;;;;;;10.40;4.32;;;;;;;4.54;100.00;99071.03;5249966;28;20037;-65
2021/12/08 01:26:35;;;;;;;10.02;4.32;;;;;;;4.53;100.00;99066.72;5254544;28;20039;-65
2021/12/08 01:29:07;;;;;;;9.40;4.32;;;;;;;4.55;100.00;99083.28;5250162;28;20514;-65
2021/12/08 01:31:41;;;;;;;10.20;4.38;;;;;;;4.59;100.00;99075.94;5253608;28;20388;-65
2021/12/08 01:34:13;;;;;;;11.00;4.18;;;;;;;4.60;100.00;99080.25;5249209;28;20030;-65
2021/12/08 01:36:44;;;;;;;10.00;4.53;;;;;;;4.62;100.00;99073.91;5251683;28;20047;-65
2021/12/08 01:39:15;;;;;;;11.85;4.45;;;;;;;4.62;100.00;99073.03;5249929;28;20033;-65
2021/12/08 01:41:48;;;;;;;10.00;4.55;;;;;;;4.64;100.00;99077.25;5252478;28;20410;-65
2021/12/08 01:47:09;;;;;;;13.15;4.60;;;;;;;4.65;100.00;99088.66;5250589;28;20033;-65
2021/12/08 01:49:40;;;;;;;11.52;4.55;;;;;;;4.69;100.00;99087.44;5252063;28;20032;-65
2021/12/08 01:52:11;;;;;;;10.13;4.32;;;;;;;4.67;100.00;99089.38;5252993;28;20024;-65
2021/12/08 01:54:43;;;;;;;14.18;3.80;;;;;;;4.71;100.00;99094.28;5251914;28;20028;-65
2021/12/08 01:57:14;;;;;;;11.98;4.32;;;;;;;4.69;100.00;99090.91;5249123;28;20033;-64
2021/12/08 01:59:46;;;;;;;13.63;4.85;;;;;;;4.71;100.00;99091.63;5250918;28;20487;-65
2021/12/08 02:02:17;;;;;;;11.52;4.18;;;;;;;4.73;100.00;99096.81;5249743;28;20471;-65
2021/12/08 02:04:49;;;;;;;16.00;3.83;;;;;;;4.71;100.00;99096.91;5252362;28;20041;-65
2021/12/08 02:07:20;;;;;;;10.45;3.67;;;;;;;4.79;100.00;99109.50;5251866;28;20043;-65
2021/12/08 02:09:52;;;;;;;13.85;4.45;;;;;;;4.79;100.00;99108.69;5247127;28;20044;-65
2021/12/08 02:12:24;;;;;;;12.55;3.70;;;;;;;4.74;100.00;99116.13;5251653;28;20546;-65
2021/12/08 02:14:58;;;;;;;14.65;4.20;;;;;;;4.78;100.00;99126.34;5249661;28;20745;-65
2021/12/08 02:17:29;;;;;;;11.25;4.28;;;;;;;4.77;100.00;99118.53;5252073;28;20106;-65
2021/12/08 02:20:04;;;;;;;15.07;4.47;;;;;;;4.73;100.00;99125.88;5247069;28;20029;-64
2021/12/08 02:22:35;;;;;;;;;;;;;;;4.78;100.00;99134.28;5251362;28;20025;-65
2021/12/08 02:25:09;;;;;;;14.10;4.57;;;;;;;4.68;100.00;99139.44;5243858;28;19924;-65
2021/12/08 02:27:41;;;;;;;13.43;4.30;;;;;;;4.69;100.00;99138.47;5246916;28;20037;-65
2021/12/08 02:30:27;;;;;;;13.57;4.55;;;;;;;4.70;100.00;99137.53;5248396;28;20024;-64
2021/12/08 02:47:43;;;;;;;9.60;3.53;;;;;;;4.30;100.00;99145.09;5251481;28;20482;-64
2021/12/08 02:50:15;;;;;;;10.65;3.42;;;;;;;4.26;100.00;99143.69;5248375;28;20176;-65
2021/12/08 02:52:47;;;;;;;10.95;3.55;;;;;;;4.25;100.00;99163.09;5250061;28;20344;-64
2021/12/08 02:55:18;;;;;;;14.70;3.45;;;;;;;4.21;100.00;99165.13;5249975;28;20033;-64
2021/12/08 02:57:50;;;;;;;10.30;3.35;;;;;;;4.23;100.00;99167.66;5252025;28;20060;-65
2021/12/08 03:00:26;;;;;;;10.82;3.85;;;;;;;4.25;100.00;99161.28;5253403;28;20020;-65
2021/12/08 03:03:00;;;;;;;15.23;3.78;;;;;;;4.36;100.00;99151.72;5248302;28;20483;-64
2021/12/08 03:05:33;;;;;;;12.85;3.55;;;;;;;4.38;100.00;99157.72;5250386;28;20032;-64
2021/12/08 03:08:06;;;;;;;14.95;3.20;;;;;;;4.43;100.00;99156.41;5250866;28;20032;-64
2021/12/08 03:10:42;;;;;;;9.63;3.53;;;;;;;4.44;100.00;99160.69;5250477;28;20068;-65
2021/12/08 03:13:14;;;;;;;13.77;3.70;;;;;;;4.46;100.00;99147.38;5251202;28;20028;-64
2021/12/08 03:15:45;;;;;;;13.32;3.40;;;;;;;4.52;100.00;99152.19;5249512;28;20043;-64
2021/12/08 03:18:16;;;;;;;14.98;3.42;;;;;;;4.49;100.00;99163.84;5249320;28;20475;-64
2021/12/08 03:20:50;;;;;;;13.77;3.80;;;;;;;4.49;100.00;99168.28;5249778;28;20036;-65
2021/12/08 03:23:28;;;;;;;12.35;3.33;;;;;;;4.52;100.00;99165.38;5246088;28;20038;-64
2021/12/08 03:26:04;;;;;;;12.85;3.70;;;;;;;4.50;100.00;99178.69;5251018;28;20087;-64
2021/12/08 03:28:42;;;;;;;12.68;4.13;;;;;;;4.50;100.00;99176.06;5249315;28;20033;-63
2021/12/08 03:31:18;;;;;;;10.27;3.80;;;;;;;4.45;100.00;99183.53;5247889;28;20061;-63
2021/12/08 03:33:50;;;;;;;13.52;3.97;;;;;;;4.41;100.00;99187.38;5253676;28;20083;-63
2021/12/08 03:36:21;;;;;;;11.45;3.05;;;;;;;4.36;100.00;99189.50;5252105;28;20024;-64
2021/12/08 03:38:52;;;;;;;11.30;3.00;;;;;;;4.34;100.00;99186.16;5254348;28;20040;-64
2021/12/08 03:41:25;;;;;;;13.50;3.25;;;;;;;4.28;100.00;99187.47;5252573;28;20439;-64
2021/12/08 03:43:56;;;;;;;10.73;3.47;;;;;;;4.27;100.00;99180.50;5252996;28;20119;-64
2021/12/08 03:46:30;;;;;;;12.93;3.15;;;;;;;4.20;100.00;99171.38;5255291;28;20886;-64
2021/12/08 03:49:05;;;;;;;14.55;3.33;;;;;;;4.13;100.00;99175.44;5253146;28;20095;-64
2021/12/08 03:51:38;;;;;;;16.52;2.75;;;;;;;4.04;100.00;99190.16;5251226;28;20561;-64
2021/12/08 03:54:11;;;;;;;11.07;2.25;;;;;;;4.07;100.00;99184.66;5255250;28;20028;-63
2021/12/08 03:56:42;;;;;;;13.98;3.10;;;;;;;4.00;100.00;99187.91;5254942;28;20021;-63
2021/12/08 03:59:13;;;;;;;13.18;3.33;;;;;;;3.93;100.00;99195.41;5252246;28;20357;-64
2021/12/08 04:01:45;;;;;;;13.32;2.78;;;;;;;3.87;100.00;99199.38;5249785;28;20033;-64
2021/12/08 04:04:16;;;;;;;12.43;2.75;;;;;;;3.77;100.00;99197.53;5253893;28;20463;-63
2021/12/08 04:06:51;;;;;;;14.98;3.03;;;;;;;3.73;100.00;99197.75;5253156;28;20159;-64
2021/12/08 04:09:47;;;;;;;11.77;2.60;;;;;;;3.62;100.00;99205.63;5252216;28;20387;-64
2021/12/08 04:12:18;;;;;;;11.73;2.72;;;;;;;3.57;100.00;99201.66;5253328;28;20293;-64
2021/12/08 04:14:55;;;;;;;12.95;2.85;;;;;;;3.50;100.00;99207.38;5254326;28;20024;-64
2021/12/08 04:17:35;;;;;;;9.60;2.65;;;;;;;3.47;100.00;99198.84;5250558;28;20121;-64
2021/12/08 04:20:20;;;;;;;9.77;2.65;;;;;;;3.47;100.00;99201.50;5249544;28;20174;-64
2021/12/08 04:22:53;;;;;;;;;;;;;;;3.46;100.00;99203.28;5251208;28;20075;-64
2021/12/08 04:25:30;;;;;;;13.18;2.67;;;;;;;3.42;100.00;99214.19;5248430;28;20385;-64
2021/12/08 04:28:07;;;;;;;12.18;2.83;;;;;;;3.38;100.00;99213.56;5251347;28;20021;-64
2021/12/08 04:30:49;;;;;;;9.30;2.20;;;;;;;3.36;100.00;99210.19;5253419;28;20118;-64
2021/12/08 04:33:22;;;;;;;18.20;2.97;;;;;;;3.26;100.00;99228.47;5253358;28;20478;-63
2021/12/08 04:35:54;;;;;;;11.02;2.80;;;;;;;3.25;100.00;99220.69;5254445;28;20037;-64
2021/12/08 04:38:34;;;;;;;11.10;2.50;;;;;;;3.16;100.00;99216.06;5253959;28;20339;-64
2021/12/08 04:41:11;;;;;;;11.43;2.80;;;;;;;3.18;100.00;99222.91;5254752;28;20112;-64
2021/12/08 04:44:01;;;;;;;12.70;2.63;;;;;;;3.13;100.00;99223.25;5252209;28;20162;-64
2021/12/08 04:47:18;;;;;;;9.48;2.33;;;;;;;3.12;100.00;99211.00;5254246;28;20128;-63
2021/12/08 05:09:26;;;;;;;7.63;2.35;;;;;;;2.90;100.00;99243.31;5251975;28;20552;-63
2021/12/08 05:12:09;;;;;;;12.55;2.95;;;;;;;2.96;100.00;99234.16;5252234;28;20037;-63
2021/12/08 05:14:55;;;;;;;11.68;2.10;;;;;;;3.04;100.00;99246.78;5250962;28;20045;-63
2021/12/08 05:17:35;;;;;;;12.80;2.40;;;;;;;3.05;100.00;99241.41;5252672;28;20032;-63
2021/12/08 05:20:21;;;;;;;12.07;2.20;;;;;;;3.08;100.00;99238.53;5248596;28;20486;-63
2021/12/08 05:22:56;;;;;;;11.02;2.13;;;;;;;3.19;100.00;99245.69;5249491;28;20029;-63
2021/12/08 05:25:31;;;;;;;9.80;2.30;;;;;;;3.13;100.00;99239.06;5250925;28;20175;-64
2021/12/08 05:28:06;;;;;;;12.30;2.33;;;;;;;3.19;100.00;99245.69;5253388;28;20027;-63
2021/12/08 05:30:44;;;;;;;11.80;2.10;;;;;;;3.19;100.00;99242.22;5252464;28;20036;-63
2021/12/08 05:33:16;;;;;;;12.27;2.22;;;;;;;3.13;100.00;99249.59;5250056;28;20036;-64
2021/12/08 05:35:48;;;;;;;10.57;1.75;;;;;;;3.09;100.00;99249.94;5250178;28;20017;-63
2021/12/08 05:38:20;;;;;;;11.90;2.30;;;;;;;3.06;100.00;99250.97;5253011;28;20036;-63
2021/12/08 05:41:03;;;;;;;12.10;2.00;;;;;;;3.08;100.00;99258.78;5250770;28;20040;-63
2021/12/08 05:43:34;;;;;;;12.90;2.20;;;;;;;3.11;100.00;99269.13;5249036;28;20468;-63
2021/12/08 05:46:07;;;;;;;13.20;2.38;;;;;;;3.12;100.00;99268.97;5253915;28;20032;-65
2021/12/08 05:48:40;;;;;;;18.25;3.00;;;;;;;3.12;100.00;99271.63;5252507;28;20021;-63
2021/12/08 05:51:18;;;;;;;10.48;2.25;;;;;;;3.14;100.00;99274.16;5247448;28;20079;-64
2021/12/08 05:53:53;;;;;;;12.55;2.00;;;;;;;3.20;100.00;99276.34;5247557;28;20029;-63
2021/12/08 05:56:26;;;;;;;14.82;2.95;;;;;;;3.18;100.00;99275.59;5250112;28;20031;-63
2021/12/08 05:59:00;;;;;;;11.23;2.05;;;;;;;3.17;100.00;99265.19;5248295;28;20075;-63
2021/12/08 06:01:42;;;;;;;13.18;2.22;;;;;;;3.12;100.00;99266.34;5248541;28;20048;-63
2021/12/08 06:04:14;;;;;;;13.48;2.65;;;;;;;3.12;100.00;99271.63;5246441;28;20108;-63
2021/12/08 06:06:47;;;;;;;12.48;2.50;;;;;;;3.13;100.00;99280.38;5252630;28;20370;-63
2021/12/08 06:09:21;;;;;;;14.60;2.50;;;;;;;3.08;100.00;99290.41;5250192;28;20082;-63
2021/12/08 06:11:54;;;;;;;19.40;2.13;;;;;;;3.09;100.00;99290.28;5246352;28;20570;-63
2021/12/08 06:14:32;;;;;;;14.68;2.65;;;;;;;3.05;100.00;99291.47;5253121;28;20029;-63
2021/12/08 06:17:17;;;;;;;11.82;2.22;;;;;;;3.02;100.00;99296.09;5251355;28;20487;-63
2021/12/08 06:19:49;;;;;;;13.48;2.63;;;;;;;3.03;100.00;99287.22;5248402;28;20024;-63
2021/12/08 06:22:22;;;;;;;15.10;3.00;;;;;;;2.96;100.00;99299.19;5249404;28;20032;-63
2021/12/08 06:24:53;;;;;;;14.68;2.55;;;;;;;2.96;100.00;99310.53;5248952;28;20369;-63
2021/12/08 06:27:25;;;;;;;17.17;2.60;;;;;;;2.99;100.00;99298.94;5250424;28;20027;-64
2021/12/08 06:29:57;;;;;;;20.95;2.70;;;;;;;2.99;100.00;99312.13;5252740;28;20472;-64
2021/12/08 06:32:28;;;;;;;19.38;2.65;;;;;;;2.88;100.00;99305.81;5247069;28;20035;-65
2021/12/08 06:35:01;;;;;;;12.90;2.60;;;;;;;2.87;100.00;99308.53;5247236;28;20032;-64
2021/12/08 06:37:36;;;;;;;19.30;3.28;;;;;;;2.85;100.00;99310.44;5249907;28;20025;-64
2021/12/08 06:40:17;;;;;;;16.50;3.08;;;;;;;2.83;100.00;99312.34;5248030;28;20025;-64
2021/12/08 06:42:51;;;;;;;19.25;2.88;;;;;;;2.78;100.00;99315.31;5249078;28;20037;-64
2021/12/08 06:45:28;;;;;;;13.80;2.55;;;;;;;2.69;100.00;99308.03;5249867;28;20036;-64
2021/12/08 06:48:04;;;;;;;17.55;2.65;;;;;;;2.65;100.00;99302.13;5250826;28;20021;-64
2021/12/08 06:50:52;;;;;;;14.35;3.13;;;;;;;2.62;100.00;99304.13;5250702;28;20569;-64
2021/12/08 06:53:25;;;;;;;11.25;2.67;;;;;;;2.57;100.00;99319.38;5251063;28;20522;-64
2021/12/08 06:56:01;;;;;;;20.20;3.13;;;;;;;2.52;100.00;99317.09;5249001;28;20036;-64
2021/12/08 06:58:36;;;;;;;19.90;2.97;;;;;;;2.51;100.00;99316.25;5247799;28;20397;-64
2021/12/08 07:02:03;;;;;;;12.57;2.50;;;;;;;2.49;100.00;99323.41;5249011;28;20020;-64
2021/12/08 07:04:25;;;;;;;14.88;2.50;;;;;;;2.44;100.00;99320.22;5246049;28;20507;-64
2021/12/08 07:07:18;;;;;;;16.48;2.90;;;;;;;2.37;100.00;99326.84;5247005;28;20730;-64
2021/12/08 07:10:21;;;;;;;12.02;2.35;;;;;;;2.38;100.00;99332.94;5248478;28;20128;-64
2021/12/08 07:12:56;;;;;;;10.68;2.28;;;;;;;2.28;100.00;99341.47;5249524;28;20607;-64
2021/12/08 07:15:40;;;;;;;14.25;2.53;;;;;;;2.27;100.00;99341.56;5249380;28;20047;-64
2021/12/08 07:18:16;;;;;;;15.35;2.60;;;;;;;2.23;100.00;99353.25;5250338;28;20032;-64
2021/12/08 07:20:54;;;;;;;15.95;2.22;;;;;;;2.21;100.00;99349.88;5247340;28;20485;-64
2021/12/08 07:23:36;;;;;;;14.50;2.80;;;;;;;2.15;100.00;99373.00;5251825;28;20450;-64
2021/12/08 07:26:14;;;;;;;14.68;2.45;;;;;;;2.16;100.00;99379.94;5247783;28;20025;-64
2021/12/08 07:28:47;;;;;;;12.55;2.63;;;;;;;2.11;100.00;99376.78;5248251;28;20025;-64
2021/12/08 07:31:25;;;;;;;10.88;2.30;;;;;;;2.11;100.00;99378.56;5240397;28;20035;-64
2021/12/08 07:34:03;;;;;;;13.48;2.47;;;;;;;2.10;100.00;99388.25;5245914;28;20534;-64
2021/12/08 07:36:41;;;;;;;12.63;2.30;;;;;;;2.05;100.00;99379.81;5246631;28;20100;-64
2021/12/08 07:39:19;;;;;;;11.40;2.10;;;;;;;2.04;100.00;99393.91;5249233;28;20023;-64
2021/12/08 07:41:53;;;;;;;12.38;2.33;;;;;;;2.05;100.00;99402.63;5246181;28;20091;-64
2021/12/08 07:44:25;;;;;;;16.60;2.60;;;;;;;2.14;100.00;99405.50;5252183;28;20029;-64
2021/12/08 07:47:02;;;;;;;19.40;2.83;;;;;;;2.15;100.00;99406.38;5249681;28;20506;-64
2021/12/08 07:49:42;;;;;;;11.73;2.30;;;;;;;2.24;100.00;99415.44;5249143;28;20041;-63
2021/12/08 07:52:20;;;;;;;14.60;2.72;;;;;;;2.27;100.00;99416.09;5250422;28;20108;-64
2021/12/08 07:54:54;;;;;;;19.30;3.38;;;;;;;2.30;100.00;99413.28;5250390;28;20127;-64
2021/12/08 07:57:30;;;;;;;16.10;2.60;;;;;;;2.42;100.00;99416.06;5250454;28;20463;-64
2021/12/08 08:00:17;;;;;;;14.55;2.55;;;;;;;2.45;100.00;99408.75;5251197;28;20051;-64
2021/12/08 08:02:49;;;;;;;16.50;2.80;;;;;;;2.53;100.00;99406.50;5252979;28;20032;-64
2021/12/08 08:05:27;;;;;;;16.10;2.85;;;;;;;2.55;100.00;99403.72;5246101;28;20029;-64
2021/12/08 08:08:03;;;;;;;11.40;2.33;;;;;;;2.60;100.00;99413.97;5254165;28;20383;-64
2021/12/08 08:10:41;;;;;;;12.75;2.75;;;;;;;2.62;100.00;99415.56;5249116;28;20434;-64
2021/12/08 08:13:15;;;;;;;13.93;2.40;;;;;;;2.70;100.00;99413.28;5251945;28;20029;-64
2021/12/08 08:15:51;;;;;;;11.88;2.55;;;;;;;2.67;100.00;99416.09;5252544;28;20033;-65
2021/12/08 08:18:27;;;;;;;16.00;2.72;;;;;;;2.69;100.00;99426.53;5247240;28;20017;-64
2021/12/08 08:21:02;;;;;;;12.68;3.40;;;;;;;2.73;100.00;99425.38;5254962;28;20021;-64
2021/12/08 08:23:34;;;;;;;13.82;2.92;;;;;;;2.75;100.00;99420.84;5252975;28;20025;-64
2021/12/08 08:26:08;;;;;;;14.23;3.00;;;;;;;2.74;100.00;99416.50;5253484;28;20412;-64
2021/12/08 08:28:41;;;;;;;12.40;4.18;;;;;;;2.81;100.00;99425.69;5249853;28;20118;-64
2021/12/08 08:31:20;;;;;;;15.30;3.33;;;;;;;2.84;100.00;99424.63;5253560;28;20125;-64
2021/12/08 08:33:52;;;;;;;14.23;2.90;;;;;;;2.84;100.00;99416.75;5253292;28;20082;-64
2021/12/08 08:36:33;;;;;;;12.43;2.97;;;;;;;2.91;100.00;99416.22;5255031;28;20025;-64
2021/12/08 08:39:09;;;;;;;11.70;3.13;;;;;;;2.89;100.00;99391.78;5252714;28;20276;-64
2021/12/08 08:41:46;;;;;;;10.93;2.97;;;;;;;2.83;100.00;99389.56;5253465;28;20037;-64
2021/12/08 08:44:27;;;;;;;10.73;2.67;;;;;;;2.84;100.00;99393.91;5247766;28;20116;-64
2021/12/08 08:47:05;;;;;;;14.18;3.40;;;;;;;2.77;100.00;99387.34;5250803;28;20430;-64
2021/12/08 08:49:40;;;;;;;13.45;3.30;;;;;;;2.71;100.00;99385.97;5254917;28;20040;-64
2021/12/08 08:52:25;;;;;;;12.50;3.10;;;;;;;2.64;100.00;99387.31;5255857;28;20036;-64
2021/12/08 08:55:00;;;;;;;10.77;2.85;;;;;;;2.66;100.00;99376.69;5253926;28;20033;-64
2021/12/08 08:57:35;;;;;;;10.55;2.72;;;;;;;2.61;100.00;99384.06;5254404;28;20566;-64
2021/12/08 09:00:12;;;;;;;;;;;;;;;2.58;100.00;99400.06;5255079;28;20376;-64
2021/12/08 09:02:44;;;;;;;9.50;2.67;;;;;;;2.49;100.00;99405.00;5252759;28;19920;-64
2021/12/08 09:05:30;;;;;;;15.02;3.40;;;;;;;2.48;100.00;99392.78;5252577;28;20462;-64
2021/12/08 09:08:04;;;;;;;11.30;2.90;;;;;;;2.48;100.00;99411.22;5251976;28;20025;-64
2021/12/08 09:10:44;;;;;;;7.93;2.85;;;;;;;2.51;100.00;99412.78;5250933;28;20503;-64
2021/12/08 09:13:23;;;;;;;15.32;3.28;;;;;;;2.49;100.00;99402.38;5253066;28;20033;-64
2021/12/08 09:16:01;;;;;;;12.85;2.97;;;;;;;2.53;100.00;99409.13;5252112;28;20487;-64
2021/12/08 09:18:49;;;;;;;11.50;2.90;;;;;;;2.47;100.00;99409.50;5247116;28;20029;-64
2021/12/08 09:21:24;;;;;;;9.48;2.40;;;;;;;2.48;100.00;99407.75;5249666;28;20562;-62
2021/12/08 09:24:04;;;;;;;14.88;3.00;;;;;;;2.49;100.00;99412.03;5250025;28;20037;-62
2021/12/08 09:26:42;;;;;;;13.18;2.72;;;;;;;2.52;100.00;99430.28;5251905;28;20446;-62
2021/12/08 09:29:24;;;;;;;11.95;2.83;;;;;;;2.46;100.00;99434.16;5251859;28;20025;-63
2021/12/08 09:32:19;;;;;;;17.15;2.75;;;;;;;2.48;100.00;99428.81;5251897;28;20025;-63
2021/12/08 09:34:57;;;;;;;;;;;;;;;2.46;100.00;99447.31;5250805;28;20407;-63
2021/12/08 09:37:37;;;;;;;10.60;2.58;;;;;;;2.50;100.00;99447.97;5250812;28;19913;-63
2021/12/08 09:40:18;;;;;;;13.38;2.95;;;;;;;2.58;100.00;99450.09;5250934;28;20163;-63
2021/12/08 09:42:53;;;;;;;10.77;2.38;;;;;;;2.60;100.00;99451.69;5247314;28;20039;-63
2021/12/08 09:45:35;;;;;;;12.30;2.78;;;;;;;2.65;100.00;99446.97;5247979;28;20440;-63
2021/12/08 09:48:07;;;;;;;7.78;2.88;;;;;;;2.73;100.00;99443.81;5252624;28;21408;-63
2021/12/08 09:50:39;;;;;;;12.90;2.70;;;;;;;2.71;100.00;99437.81;5249325;28;20510;-63
2021/12/08 09:53:10;;;;;;;11.98;2.88;;;;;;;2.72;100.00;99428.94;5251625;28;20029;-63
2021/12/08 09:55:42;;;;;;;12.65;2.80;;;;;;;2.69;100.00;99426.53;5247479;28;20609;-64
2021/12/08 09:58:13;;;;;;;9.52;2.88;;;;;;;2.70;100.00;99425.56;5250326;28;20021;-63
2021/12/08 10:00:47;;;;;;;11.00;2.30;;;;;;;2.73;100.00;99433.28;5253775;28;20340;-63
2021/12/08 10:03:18;;;;;;;13.25;2.83;;;;;;;2.73;100.00;99426.22;5250688;28;20133;-63
2021/12/08 10:05:50;;;;;;;12.70;2.45;;;;;;;2.74;100.00;99421.78;5248610;28;20033;-63
2021/12/08 10:08:21;;;;;;;10.60;2.35;;;;;;;2.75;100.00;99413.78;5250685;28;20547;-63
2021/12/08 10:10:53;;;;;;;10.27;2.53;;;;;;;2.79;100.00;99424.13;5252073;28;20420;-63
2021/12/08 10:13:24;;;;;;;11.32;3.22;;;;;;;2.78;100.00;99418.03;5251790;28;20648;-63
2021/12/08 10:15:55;;;;;;;10.63;2.72;;;;;;;2.82;100.00;99411.59;5250349;28;20056;-64
2021/12/08 10:18:27;;;;;;;14.38;2.83;;;;;;;2.84;100.00;99404.44;5251398;28;20021;-64
2021/12/08 10:20:58;;;;;;;10.48;2.70;;;;;;;2.81;100.00;99396.72;5253459;28;20085;-64
2021/12/08 10:23:34;;;;;;;13.20;2.47;;;;;;;2.83;100.00;99397.47;5251765;28;20056;-64
2021/12/08 10:26:09;;;;;;;9.98;2.28;;;;;;;2.87;100.00;99398.09;5251132;28;20025;-63
2021/12/08 10:28:45;;;;;;;12.18;2.85;;;;;;;2.85;100.00;99398.19;5252371;28;20056;-63
2021/12/08 10:31:19;;;;;;;9.15;2.53;;;;;;;2.87;100.00;99391.03;5252474;28;20075;-64
2021/12/08 10:34:08;;;;;;;8.13;2.30;;;;;;;2.88;100.00;99376.94;5248712;28;20774;-63
2021/12/08 10:36:57;;;;;;;9.88;2.50;;;;;;;2.88;100.00;99390.09;5249279;28;20086;-64
2021/12/08 10:39:34;;;;;;;8.93;2.63;;;;;;;2.92;100.00;99383.69;5251434;28;20049;-63
2021/12/08 10:42:29;;;;;;;10.82;3.03;;;;;;;2.91;100.00;99384.59;5252804;28;20020;-64
2021/12/08 10:47:51;;;;;;;8.68;2.20;;;;;;;2.96;100.00;99371.13;5254002;28;20075;-63
2021/12/08 10:56:24;;;;;;;11.05;2.40;;;;;;;3.00;100.00;99369.97;5252686;28;20029;-63
2021/12/08 10:58:58;;;;;;;9.93;2.30;;;;;;;3.01;100.00;99379.59;5252723;28;20083;-63
2021/12/08 11:01:29;;;;;;;8.68;2.45;;;;;;;3.04;100.00;99387.25;5250799;28;20033;-63
2021/12/08 11:04:04;;;;;;;10.98;2.97;;;;;;;3.07;100.00;99399.41;5248345;28;20067;-64
2021/12/08 11:06:38;;;;;;;12.45;2.70;;;;;;;3.10;100.00;99402.63;5251254;28;20029;-63
2021/12/08 11:09:15;;;;;;;7.65;2.30;;;;;;;3.10;100.00;99415.81;5248520;28;20029;-64
2021/12/08 11:11:48;;;;;;;9.73;2.47;;;;;;;3.12;100.00;99418.34;5250938;28;20502;-64
2021/12/08 11:14:19;;;;;;;13.55;3.22;;;;;;;3.19;100.00;99416.16;5252731;28;20495;-64
2021/12/08 11:16:50;;;;;;;9.57;2.80;;;;;;;3.28;100.00;99429.53;5246713;28;20107;-64
2021/12/08 11:19:22;;;;;;;9.40;2.85;;;;;;;3.41;100.00;99432.13;5250533;28;20024;-63
2021/12/08 11:21:57;;;;;;;7.57;2.92;;;;;;;3.47;100.00;99431.75;5251668;28;20106;-64
2021/12/08 11:24:38;;;;;;;;;;;;;;;3.51;100.00;99435.00;5252761;28;20029;-64
2021/12/08 11:27:10;;;;;;;8.93;2.50;;;;;;;3.66;100.00;99433.06;5251897;28;19921;-64
2021/12/08 11:29:42;;;;;;;12.85;2.50;;;;;;;3.76;100.00;99438.53;5249963;28;21497;-64
2021/12/08 11:32:18;;;;;;;9.50;3.00;;;;;;;3.84;100.00;99438.84;5249278;28;20490;-64
2021/12/08 11:34:51;;;;;;;10.02;2.80;;;;;;;3.89;100.00;99450.75;5247415;28;20519;-64
2021/12/08 11:37:32;;;;;;;10.68;2.58;;;;;;;3.97;100.00;99455.50;5252751;28;20025;-64
2021/12/08 11:40:15;;;;;;;11.80;2.67;;;;;;;4.07;100.00;99456.50;5249214;28;20436;-64
2021/12/08 11:42:49;;;;;;;10.63;2.70;;;;;;;4.17;100.00;99459.31;5249138;28;20025;-64
2021/12/08 11:45:21;;;;;;;10.52;2.85;;;;;;;4.31;100.00;99474.16;5247085;28;21404;-64
2021/12/08 11:47:52;;;;;;;10.27;2.65;;;;;;;4.39;100.00;99468.31;5247426;28;20040;-64
2021/12/08 11:50:24;;;;;;;7.10;2.22;;;;;;;4.43;100.00;99465.38;5247648;28;20025;-64
2021/12/08 11:52:56;;;;;;;9.13;2.72;;;;;;;4.48;100.00;99472.94;5252872;28;20070;-64
2021/12/08 11:55:29;;;;;;;11.50;2.70;;;;;;;4.52;100.00;99479.69;5253720;28;20044;-64
2021/12/08 11:58:01;;;;;;;8.65;2.60;;;;;;;4.58;100.00;99481.84;5252772;28;20025;-64
2021/12/08 12:00:37;;;;;;;9.98;2.80;;;;;;;4.56;100.00;99475.00;5256856;28;20029;-64
2021/12/08 12:03:10;;;;;;;10.93;3.50;;;;;;;4.63;100.00;99481.53;5247423;28;20057;-64
2021/12/08 12:05:45;;;;;;;6.90;2.30;;;;;;;4.59;100.00;99488.84;5250612;28;20198;-65
2021/12/08 12:08:18;;;;;;;;;;;;;;;4.64;100.00;99491.13;5252174;28;20055;-64
2021/12/08 12:10:53;;;;;;;6.90;2.20;;;;;;;4.62;100.00;99500.97;5257900;28;19925;-64
2021/12/08 12:13:25;;;;;;;8.60;2.05;;;;;;;4.68;100.00;99503.19;5251132;28;20021;-64
2021/12/08 12:15:57;;;;;;;7.38;2.38;;;;;;;4.73;100.00;99514.25;5252287;28;20979;-64
2021/12/08 12:18:31;;;;;;;7.07;2.28;;;;;;;4.76;100.00;99519.31;5249236;28;20025;-64
2021/12/08 12:21:10;;;;;;;7.15;2.25;;;;;;;4.78;100.00;99535.88;5254372;28;20045;-64
2021/12/08 12:23:51;;;;;;;10.55;2.97;;;;;;;4.83;100.00;99535.53;5252975;28;20029;-64
2021/12/08 12:26:22;;;;;;;5.38;1.90;;;;;;;4.81;100.00;99535.66;5252379;28;20119;-64
2021/12/08 12:29:23;;;;;;;10.40;2.10;;;;;;;4.86;100.00;99543.25;5253216;28;20394;-64
2021/12/08 12:32:04;;;;;;;7.70;2.20;;;;;;;4.89;100.00;99541.22;5249285;28;20025;-64
2021/12/08 12:34:38;;;;;;;9.07;2.40;;;;;;;4.89;100.00;99541.22;5254273;28;20119;-64
2021/12/08 12:37:15;;;;;;;9.32;2.10;;;;;;;4.95;100.00;99553.16;5252746;28;20032;-64
2021/12/08 12:39:52;;;;;;;7.90;2.03;;;;;;;4.94;100.00;99561.19;5253772;28;20568;-64
2021/12/08 12:42:25;;;;;;;6.53;2.10;;;;;;;4.91;100.00;99549.88;5252721;28;20510;-64
2021/12/08 12:44:57;;;;;;;6.20;2.00;;;;;;;4.97;100.00;99558.31;5253994;28;20155;-64
2021/12/08 12:47:30;;;;;;;8.95;1.70;;;;;;;4.98;100.00;99554.72;5253767;28;20495;-64
2021/12/08 12:50:21;;;;;;;9.10;2.20;;;;;;;5.06;100.00;99557.63;5252128;28;20061;-64
2021/12/08 12:53:00;;;;;;;8.50;2.47;;;;;;;4.99;100.00;99559.06;5253550;28;20116;-64
2021/12/08 12:55:36;;;;;;;7.30;1.90;;;;;;;5.02;100.00;99561.44;5253545;28;20043;-64
2021/12/08 12:58:09;;;;;;;8.13;1.90;;;;;;;5.02;100.00;99545.59;5253401;28;20025;-64